createdAt,value
2018-06-13T00:00:31.561Z,96437.00
2018-06-13T00:03:12.891Z,96445.00
2018-06-13T00:05:54.984Z,96431.00
2018-06-13T00:08:37.312Z,96432.00
2018-06-13T00:11:22.090Z,96437.00
2018-06-13T00:14:07.494Z,96438.00
2018-06-13T00:16:48.961Z,96432.00
2018-06-13T00:19:30.709Z,96432.00
2018-06-13T00:22:12.178Z,96419.00
2018-06-13T00:24:53.580Z,96432.00
2018-06-13T00:27:34.908Z,96423.00
2018-06-13T00:30:16.364Z,96416.00
2018-06-13T00:32:57.868Z,96418.00
2018-06-13T00:35:39.778Z,96410.00
2018-06-13T00:38:21.137Z,96407.00
2018-06-13T00:41:03.724Z,96405.00
2018-06-13T00:43:46.307Z,96407.00
2018-06-13T00:46:29.019Z,96404.00
2018-06-13T00:49:10.340Z,96411.00
2018-06-13T00:51:51.717Z,96419.00
2018-06-13T00:54:33.077Z,96422.00
2018-06-13T00:57:14.424Z,96424.00
2018-06-13T00:59:56.632Z,96418.00
2018-06-13T01:02:37.911Z,96419.00
2018-06-13T01:05:19.243Z,96434.00
2018-06-13T01:08:00.644Z,96436.00
2018-06-13T01:10:41.840Z,96440.00
2018-06-13T01:13:23.301Z,96426.00
2018-06-13T01:16:04.788Z,96431.00
2018-06-13T01:18:46.548Z,96432.00
2018-06-13T01:21:29.032Z,96430.00
2018-06-13T01:24:10.492Z,96432.00
2018-06-13T01:26:51.915Z,96428.00
2018-06-13T01:29:33.313Z,96423.00
2018-06-13T01:32:15.104Z,96421.00
2018-06-13T01:34:58.079Z,96421.00
2018-06-13T01:37:40.021Z,96424.00
2018-06-13T01:40:21.340Z,96422.00
2018-06-13T01:43:02.644Z,96424.00
2018-06-13T01:45:44.237Z,96424.00
2018-06-13T01:48:26.559Z,96429.00
2018-06-13T01:51:07.952Z,96419.00
2018-06-13T01:53:49.632Z,96413.00
2018-06-13T01:56:31.152Z,96424.00
2018-06-13T02:02:34.702Z,96415.00
2018-06-13T02:05:18.043Z,96417.00
2018-06-13T02:07:59.356Z,96415.00
2018-06-13T02:10:40.806Z,96417.00
2018-06-13T02:13:22.730Z,96424.00
2018-06-13T02:16:04.163Z,96422.00
2018-06-13T02:18:45.439Z,96415.00
2018-06-13T02:21:27.408Z,96414.00
2018-06-13T02:24:08.852Z,96412.00
2018-06-13T02:26:50.262Z,96419.00
2018-06-13T02:29:31.598Z,96412.00
2018-06-13T02:32:12.922Z,96406.00
2018-06-13T02:34:54.616Z,96401.00
2018-06-13T02:37:36.137Z,96402.00
2018-06-13T02:40:17.308Z,96402.00
2018-06-13T02:42:58.613Z,96410.00
2018-06-13T02:45:39.985Z,96406.00
2018-06-13T02:48:21.743Z,96391.00
2018-06-13T02:51:03.447Z,96389.00
2018-06-13T02:53:44.840Z,96389.00
2018-06-13T02:56:27.120Z,96395.00
2018-06-13T02:59:08.417Z,96392.00
2018-06-13T03:01:49.714Z,96389.00
2018-06-13T03:04:31.469Z,96383.00
2018-06-13T03:07:12.828Z,96383.00
2018-06-13T03:09:54.524Z,96374.00
2018-06-13T03:12:35.884Z,96376.00
2018-06-13T03:15:18.010Z,96378.00
2018-06-13T03:17:59.401Z,96378.00
2018-06-13T03:20:41.019Z,96369.00
2018-06-13T03:23:23.245Z,96373.00
2018-06-13T03:26:04.667Z,96377.00
2018-06-13T03:28:46.167Z,96367.00
2018-06-13T03:31:27.393Z,96367.00
2018-06-13T03:34:08.833Z,96361.00
2018-06-13T03:36:50.240Z,96357.00
2018-06-13T03:39:31.715Z,96355.00
2018-06-13T03:42:13.441Z,96359.00
2018-06-13T03:44:55.708Z,96347.00
2018-06-13T03:47:37.141Z,96355.00
2018-06-13T03:50:18.608Z,96355.00
2018-06-13T03:53:00.578Z,96349.00
2018-06-13T03:55:42.078Z,96346.00
2018-06-13T03:58:24.550Z,96353.00
2018-06-13T04:01:05.935Z,96354.00
2018-06-13T04:03:47.237Z,96355.00
2018-06-13T04:06:28.710Z,96349.00
2018-06-13T04:09:10.220Z,96345.00
2018-06-13T04:11:53.375Z,96331.00
2018-06-13T04:14:34.669Z,96336.00
2018-06-13T04:17:15.976Z,96340.00
2018-06-13T04:19:57.285Z,96343.00
2018-06-13T04:22:38.602Z,96352.00
2018-06-13T04:25:20.012Z,96341.00
2018-06-13T04:28:01.320Z,96336.00
2018-06-13T04:30:42.723Z,96346.00
2018-06-13T04:33:24.553Z,96351.00
2018-06-13T04:36:05.828Z,96342.00
2018-06-13T04:38:47.206Z,96345.00
2018-06-13T04:41:28.733Z,96345.00
2018-06-13T04:44:11.181Z,96342.00
2018-06-13T04:46:53.193Z,96330.00
2018-06-13T04:49:34.601Z,96328.00
2018-06-13T04:52:15.848Z,96327.00
2018-06-13T04:54:57.233Z,96322.00
2018-06-13T04:57:38.496Z,96338.00
2018-06-13T05:00:20.434Z,96324.00
2018-06-13T05:03:01.827Z,96326.00
2018-06-13T05:05:43.003Z,96330.00
2018-06-13T05:08:24.639Z,96335.00
2018-06-13T05:11:06.532Z,96334.00
2018-06-13T05:13:47.780Z,96349.00
2018-06-13T05:16:29.353Z,96341.00
2018-06-13T05:19:10.876Z,96352.00
2018-06-13T05:21:52.967Z,96348.00
2018-06-13T05:24:34.755Z,96351.00
2018-06-13T05:27:16.060Z,96346.00
2018-06-13T05:29:57.458Z,96352.00
2018-06-13T05:32:38.977Z,96362.00
2018-06-13T05:35:20.390Z,96352.00
2018-06-13T05:38:01.721Z,96356.00
2018-06-13T05:40:43.064Z,96361.00
2018-06-13T05:43:25.556Z,96354.00
2018-06-13T05:46:06.875Z,96369.00
2018-06-13T05:48:48.220Z,96361.00
2018-06-13T05:51:29.919Z,96370.00
2018-06-13T05:54:11.317Z,96385.00
2018-06-13T05:56:53.116Z,96376.00
2018-06-13T05:59:34.548Z,96374.00
2018-06-13T06:02:15.906Z,96378.00
2018-06-13T06:04:57.316Z,96371.00
2018-06-13T06:07:38.667Z,96367.00
2018-06-13T06:10:20.170Z,96365.00
2018-06-13T06:13:01.725Z,96371.00
2018-06-13T06:15:43.084Z,96368.00
2018-06-13T06:18:25.525Z,96383.00
2018-06-13T06:21:07.858Z,96388.00
2018-06-13T06:23:49.189Z,96375.00
2018-06-13T06:26:31.692Z,96372.00
2018-06-13T06:29:13.658Z,96370.00
2018-06-13T06:31:55.440Z,96383.00
2018-06-13T06:34:36.704Z,96376.00
2018-06-13T06:37:17.948Z,96367.00
2018-06-13T06:39:59.373Z,96373.00
2018-06-13T06:42:40.661Z,96380.00
2018-06-13T06:45:22.624Z,96387.00
2018-06-13T06:48:04.064Z,96392.00
2018-06-13T06:50:45.805Z,96398.00
2018-06-13T06:53:27.284Z,96393.00
2018-06-13T06:56:08.829Z,96392.00
2018-06-13T06:58:51.847Z,96396.00
2018-06-13T07:01:33.976Z,96400.00
2018-06-13T07:04:15.156Z,96389.00
2018-06-13T07:06:57.414Z,96404.00
2018-06-13T07:09:38.808Z,96408.00
2018-06-13T07:12:20.203Z,96413.00
2018-06-13T07:15:01.538Z,96416.00
2018-06-13T07:17:43.078Z,96415.00
2018-06-13T07:20:25.691Z,96405.00
2018-06-13T07:23:07.101Z,96400.00
2018-06-13T07:25:48.494Z,96390.00
2018-06-13T07:28:29.785Z,96393.00
2018-06-13T07:31:11.063Z,96395.00
2018-06-13T07:33:53.180Z,96395.00
2018-06-13T07:36:35.072Z,96405.00
2018-06-13T07:39:16.424Z,96408.00
2018-06-13T07:41:57.920Z,96413.00
2018-06-13T07:44:39.239Z,96408.00
2018-06-13T07:47:21.845Z,96404.00
2018-06-13T07:50:03.831Z,96403.00
2018-06-13T07:52:45.283Z,96415.00
2018-06-13T07:55:27.539Z,96422.00
2018-06-13T07:58:09.136Z,96430.00
2018-06-13T08:00:50.465Z,96420.00
2018-06-13T08:03:31.801Z,96421.00
2018-06-13T08:06:13.105Z,96427.00
2018-06-13T08:08:55.633Z,96421.00
2018-06-13T08:11:37.092Z,96418.00
2018-06-13T08:14:19.053Z,96393.00
2018-06-13T08:17:01.197Z,96395.00
2018-06-13T08:19:42.778Z,96395.00
2018-06-13T08:22:24.420Z,96407.00
2018-06-13T08:25:05.748Z,96409.00
2018-06-13T08:27:51.455Z,96424.00
2018-06-13T08:30:32.791Z,96423.00
2018-06-13T08:33:14.203Z,96418.00
2018-06-13T08:35:56.417Z,96411.00
2018-06-13T08:38:37.760Z,96414.00
2018-06-13T08:41:19.247Z,96421.00
2018-06-13T08:44:01.161Z,96416.00
2018-06-13T08:46:42.500Z,96419.00
2018-06-13T08:49:24.392Z,96414.00
2018-06-13T08:52:06.147Z,96421.00
2018-06-13T08:54:47.416Z,96420.00
2018-06-13T08:57:28.718Z,96411.00
2018-06-13T09:00:10.033Z,96415.00
2018-06-13T09:02:51.588Z,96418.00
2018-06-13T09:05:32.968Z,96415.00
2018-06-13T09:08:14.381Z,96424.00
2018-06-13T09:10:57.721Z,96424.00
2018-06-13T09:13:39.125Z,96431.00
2018-06-13T09:16:20.442Z,96430.00
2018-06-13T09:19:01.752Z,96422.00
2018-06-13T09:21:43.172Z,96418.00
2018-06-13T09:24:25.436Z,96413.00
2018-06-13T09:27:06.623Z,96415.00
2018-06-13T09:29:48.060Z,96417.00
2018-06-13T09:32:29.656Z,96419.00
2018-06-13T09:35:10.864Z,96415.00
2018-06-13T09:37:53.012Z,96420.00
2018-06-13T09:40:34.737Z,96413.00
2018-06-13T09:43:16.355Z,96421.00
2018-06-13T09:46:03.398Z,96419.00
2018-06-13T09:48:39.128Z,96425.00
2018-06-13T09:51:21.503Z,96429.00
2018-06-13T09:54:02.812Z,96435.00
2018-06-13T09:56:44.181Z,96433.00
2018-06-13T09:59:30.736Z,96437.00
2018-06-13T10:02:17.661Z,96430.00
2018-06-13T10:04:58.556Z,96438.00
2018-06-13T10:07:39.970Z,96431.00
2018-06-13T10:10:21.776Z,96437.00
2018-06-13T10:13:03.252Z,96439.00
2018-06-13T10:15:44.715Z,96440.00
2018-06-13T10:18:26.499Z,96444.00
2018-06-13T10:21:07.822Z,96447.00
2018-06-13T10:23:49.212Z,96449.00
2018-06-13T10:26:31.763Z,96453.00
2018-06-13T10:29:13.209Z,96447.00
2018-06-13T10:31:55.369Z,96446.00
2018-06-13T10:34:36.754Z,96451.00
2018-06-13T10:37:18.337Z,96456.00
2018-06-13T10:39:59.714Z,96449.00
2018-06-13T10:42:41.117Z,96457.00
2018-06-13T10:45:24.315Z,96464.00
2018-06-13T10:48:06.181Z,96460.00
2018-06-13T10:50:47.408Z,96469.00
2018-06-13T10:53:29.176Z,96471.00
2018-06-13T10:56:10.687Z,96463.00
2018-06-13T10:58:52.975Z,96464.00
2018-06-13T11:01:34.401Z,96474.00
2018-06-13T11:04:15.884Z,96470.00
2018-06-13T11:06:57.229Z,96459.00
2018-06-13T11:09:38.544Z,96466.00
2018-06-13T11:12:19.850Z,96461.00
2018-06-13T11:15:01.080Z,96450.00
2018-06-13T11:17:42.636Z,96444.00
2018-06-13T11:20:24.293Z,96431.00
2018-06-13T11:23:05.984Z,96436.00
2018-06-13T11:25:47.304Z,96438.00
2018-06-13T11:28:28.625Z,96438.00
2018-06-13T11:31:09.973Z,96428.00
2018-06-13T11:33:52.800Z,96423.00
2018-06-13T11:36:34.009Z,96424.00
2018-06-13T11:39:15.517Z,96419.00
2018-06-13T11:41:56.996Z,96425.00
2018-06-13T11:44:38.345Z,96433.00
2018-06-13T11:47:19.664Z,96428.00
2018-06-13T11:50:01.269Z,96426.00
2018-06-13T11:52:42.868Z,96426.00
2018-06-13T11:55:24.215Z,96427.00
2018-06-13T11:58:05.531Z,96439.00
2018-06-13T12:00:46.648Z,96450.00
2018-06-13T12:03:28.431Z,96440.00
2018-06-13T12:06:10.536Z,96441.00
2018-06-13T12:08:52.486Z,96443.00
2018-06-13T12:11:38.086Z,96439.00
2018-06-13T12:14:19.207Z,96442.00
2018-06-13T12:17:01.145Z,96442.00
2018-06-13T12:19:42.614Z,96441.00
2018-06-13T12:22:24.253Z,96432.00
2018-06-13T12:25:05.568Z,96434.00
2018-06-13T12:27:47.038Z,96443.00
2018-06-13T12:30:28.772Z,96429.00
2018-06-13T12:33:10.131Z,96431.00
2018-06-13T12:35:52.397Z,96435.00
2018-06-13T12:38:33.921Z,96436.00
2018-06-13T12:41:15.259Z,96444.00
2018-06-13T12:43:56.984Z,96429.00
2018-06-13T12:46:38.355Z,96434.00
2018-06-13T12:49:19.844Z,96444.00
2018-06-13T12:52:01.004Z,96443.00
2018-06-13T12:54:42.533Z,96441.00
2018-06-13T12:57:24.164Z,96447.00
2018-06-13T13:00:06.140Z,96445.00
2018-06-13T13:02:47.224Z,96440.00
2018-06-13T13:05:28.720Z,96432.00
2018-06-13T13:08:10.226Z,96443.00
2018-06-13T13:10:52.356Z,96456.00
2018-06-13T13:13:34.143Z,96455.00
2018-06-13T13:16:15.777Z,96457.00
2018-06-13T13:18:57.139Z,96452.00
2018-06-13T13:21:39.548Z,96462.00
2018-06-13T13:24:21.487Z,96452.00
2018-06-13T13:27:02.875Z,96444.00
2018-06-13T13:29:44.302Z,96444.00
2018-06-13T13:32:26.779Z,96449.00
2018-06-13T13:35:08.064Z,96447.00
2018-06-13T13:37:49.494Z,96448.00
2018-06-13T13:40:31.184Z,96448.00
2018-06-13T13:43:12.540Z,96454.00
2018-06-13T13:45:55.450Z,96452.00
2018-06-13T13:48:37.422Z,96450.00
2018-06-13T13:51:19.772Z,96464.00
2018-06-13T13:54:01.384Z,96459.00
2018-06-13T13:56:44.012Z,96459.00
2018-06-13T13:59:26.407Z,96452.00
2018-06-13T14:05:03.296Z,96454.00
2018-06-13T14:07:44.593Z,96454.00
2018-06-13T14:10:27.766Z,96457.00
2018-06-13T14:13:10.198Z,96448.00
2018-06-13T14:15:54.640Z,96444.00
2018-06-13T14:18:36.008Z,96441.00
2018-06-13T14:21:17.392Z,96439.00
2018-06-13T14:23:58.729Z,96438.00
2018-06-13T14:26:40.125Z,96444.00
2018-06-13T14:29:21.762Z,96448.00
2018-06-13T14:32:02.965Z,96453.00
2018-06-13T14:34:44.500Z,96448.00
2018-06-13T14:37:26.140Z,96440.00
2018-06-13T14:40:07.668Z,96447.00
2018-06-13T14:42:49.040Z,96440.00
2018-06-13T14:45:30.644Z,96443.00
2018-06-13T14:48:12.125Z,96446.00
2018-06-13T14:50:55.635Z,96447.00
2018-06-13T14:53:37.142Z,96444.00
2018-06-13T14:56:23.716Z,96446.00
2018-06-13T14:59:05.064Z,96443.00
2018-06-13T15:01:47.292Z,96448.00
2018-06-13T15:04:33.809Z,96450.00
2018-06-13T15:07:15.309Z,96451.00
2018-06-13T15:09:56.893Z,96451.00
2018-06-13T15:12:38.300Z,96460.00
2018-06-13T15:15:19.661Z,96458.00
2018-06-13T15:18:01.772Z,96456.00
2018-06-13T15:20:43.399Z,96454.00
2018-06-13T15:23:24.571Z,96455.00
2018-06-13T15:26:05.979Z,96461.00
2018-06-13T15:28:47.449Z,96459.00
2018-06-13T15:31:28.972Z,96460.00
2018-06-13T15:34:10.380Z,96466.00
2018-06-13T15:36:52.574Z,96468.00
2018-06-13T15:39:34.404Z,96476.00
2018-06-13T15:42:15.644Z,96487.00
2018-06-13T15:44:57.291Z,96480.00
2018-06-13T15:47:38.770Z,96486.00
2018-06-13T15:50:20.121Z,96491.00
2018-06-13T15:53:02.100Z,96491.00
2018-06-13T15:55:43.575Z,96497.00
2018-06-13T15:58:25.848Z,96500.00
2018-06-13T16:01:07.352Z,96504.00
2018-06-13T16:03:48.802Z,96503.00
2018-06-13T16:06:30.133Z,96511.00
2018-06-13T16:09:12.143Z,96511.00
2018-06-13T16:11:54.665Z,96496.00
2018-06-13T16:14:37.336Z,96507.00
2018-06-13T16:17:19.029Z,96497.00
2018-06-13T16:20:00.473Z,96504.00
2018-06-13T16:22:42.197Z,96503.00
2018-06-13T16:25:29.548Z,96509.00
2018-06-13T16:28:11.095Z,96525.00
2018-06-13T16:30:53.520Z,96523.00
2018-06-13T16:33:34.860Z,96519.00
2018-06-13T16:36:16.132Z,96526.00
2018-06-13T16:38:57.600Z,96532.00
2018-06-13T16:41:39.032Z,96528.00
2018-06-13T16:44:20.833Z,96532.00
2018-06-13T16:47:05.008Z,96531.00
2018-06-13T16:49:46.345Z,96526.00
2018-06-13T16:52:44.832Z,96535.00
2018-06-13T16:55:27.476Z,96538.00
2018-06-13T16:58:09.020Z,96534.00
2018-06-13T17:00:50.454Z,96520.00
2018-06-13T17:03:31.804Z,96529.00
2018-06-13T17:06:13.336Z,96540.00
2018-06-13T17:08:55.277Z,96545.00
2018-06-13T17:11:36.823Z,96551.00
2018-06-13T17:14:18.611Z,96556.00
2018-06-13T17:16:59.943Z,96565.00
2018-06-13T17:19:41.335Z,96575.00
2018-06-13T17:22:23.021Z,96574.00
2018-06-13T17:25:04.888Z,96568.00
2018-06-13T17:27:46.672Z,96571.00
2018-06-13T17:30:29.175Z,96576.00
2018-06-13T17:33:10.572Z,96581.00
2018-06-13T17:35:52.685Z,96585.00
2018-06-13T17:38:34.358Z,96593.00
2018-06-13T17:41:15.842Z,96587.00
2018-06-13T17:43:58.286Z,96592.00
2018-06-13T17:46:39.672Z,96591.00
2018-06-13T17:49:20.960Z,96599.00
2018-06-13T17:52:02.285Z,96589.00
2018-06-13T17:54:43.753Z,96593.00
2018-06-13T17:57:25.904Z,96590.00
2018-06-13T18:00:06.908Z,96589.00
2018-06-13T18:02:48.480Z,96594.00
2018-06-13T18:05:29.911Z,96605.00
2018-06-13T18:08:11.238Z,96606.00
2018-06-13T18:10:54.292Z,96606.00
2018-06-13T18:13:35.808Z,96618.00
2018-06-13T18:16:17.526Z,96623.00
2018-06-13T18:18:59.459Z,96630.00
2018-06-13T18:21:40.940Z,96637.00
2018-06-13T18:24:22.272Z,96644.00
2018-06-13T18:27:04.352Z,96651.00
2018-06-13T18:29:45.773Z,96651.00
2018-06-13T18:32:28.156Z,96658.00
2018-06-13T18:35:09.604Z,96661.00
2018-06-13T18:37:51.105Z,96661.00
2018-06-13T18:40:32.423Z,96666.00
2018-06-13T18:43:13.699Z,96663.00
2018-06-13T18:45:56.151Z,96662.00
2018-06-13T18:48:37.936Z,96669.00
2018-06-13T18:51:19.279Z,96668.00
2018-06-13T18:54:00.580Z,96661.00
2018-06-13T18:56:42.635Z,96659.00
2018-06-13T18:59:24.404Z,96671.00
2018-06-13T19:02:05.977Z,96669.00
2018-06-13T19:04:47.402Z,96664.00
2018-06-13T19:07:29.823Z,96666.00
2018-06-13T19:10:11.198Z,96664.00
2018-06-13T19:12:52.553Z,96672.00
2018-06-13T19:15:34.353Z,96685.00
2018-06-13T19:18:15.686Z,96687.00
2018-06-13T19:20:57.200Z,96685.00
2018-06-13T19:23:38.934Z,96688.00
2018-06-13T19:26:20.612Z,96684.00
2018-06-13T19:29:02.366Z,96696.00
2018-06-13T19:31:43.808Z,96686.00
2018-06-13T19:34:26.084Z,96688.00
2018-06-13T19:37:08.073Z,96691.00
2018-06-13T19:39:49.407Z,96695.00
2018-06-13T19:42:30.862Z,96695.00
2018-06-13T19:45:12.199Z,96697.00
2018-06-13T19:48:00.755Z,96694.00
2018-06-13T19:50:42.032Z,96699.00
2018-06-13T19:53:29.045Z,96697.00
2018-06-13T19:56:11.448Z,96700.00
2018-06-13T19:58:52.807Z,96703.00
2018-06-13T20:01:34.183Z,96703.00
2018-06-13T20:04:21.098Z,96701.00
2018-06-13T20:07:02.573Z,96699.00
2018-06-13T20:09:44.001Z,96702.00
2018-06-13T20:12:43.454Z,96694.00
2018-06-13T20:15:30.888Z,96687.00
2018-06-13T20:18:17.733Z,96695.00
2018-06-13T20:20:59.452Z,96696.00
2018-06-13T20:23:42.047Z,96704.00
2018-06-13T20:26:28.742Z,96704.00
2018-06-13T20:29:15.658Z,96719.00
2018-06-13T20:31:57.449Z,96719.00
2018-06-13T20:35:09.236Z,96727.00
2018-06-13T20:37:50.910Z,96723.00
2018-06-13T20:40:32.304Z,96724.00
2018-06-13T20:43:13.656Z,96727.00
2018-06-13T20:45:55.429Z,96735.00
2018-06-13T20:48:36.819Z,96754.00
2018-06-13T20:51:18.225Z,96745.00
2018-06-13T20:54:00.446Z,96749.00
2018-06-13T20:56:42.464Z,96754.00
2018-06-13T20:59:24.583Z,96759.00
2018-06-13T21:02:06.151Z,96760.00
2018-06-13T21:04:47.649Z,96764.00
2018-06-13T21:07:29.647Z,96761.00
2018-06-13T21:10:11.004Z,96771.00
2018-06-13T21:12:52.987Z,96762.00
2018-06-13T21:15:34.913Z,96771.00
2018-06-13T21:18:16.568Z,96770.00
2018-06-13T21:20:58.241Z,96770.00
2018-06-13T21:23:39.460Z,96783.00
2018-06-13T21:26:20.834Z,96777.00
2018-06-13T21:29:03.081Z,96793.00
2018-06-13T21:31:44.613Z,96792.00
2018-06-13T21:34:27.349Z,96794.00
2018-06-13T21:37:09.491Z,96788.00
2018-06-13T21:39:50.901Z,96794.00
2018-06-13T21:42:32.292Z,96794.00
2018-06-13T21:45:13.671Z,96793.00
2018-06-13T21:47:55.962Z,96793.00
2018-06-13T21:50:37.403Z,96799.00
2018-06-13T21:53:20.430Z,96791.00
2018-06-13T21:56:02.263Z,96797.00
2018-06-13T21:58:43.646Z,96796.00
2018-06-13T22:01:30.589Z,96790.00
2018-06-13T22:04:12.734Z,96789.00
2018-06-13T22:06:55.074Z,96776.00
2018-06-13T22:09:36.532Z,96782.00
2018-06-13T22:12:17.916Z,96780.00
2018-06-13T22:15:00.159Z,96781.00
2018-06-13T22:17:41.528Z,96774.00
2018-06-13T22:20:22.811Z,96781.00
2018-06-13T22:23:04.758Z,96775.00
2018-06-13T22:25:46.189Z,96780.00
2018-06-13T22:28:27.848Z,96786.00
2018-06-13T22:31:09.127Z,96786.00
2018-06-13T22:33:51.089Z,96782.00
2018-06-13T22:36:32.589Z,96794.00
2018-06-13T22:39:14.066Z,96790.00
2018-06-13T22:41:56.744Z,96798.00
2018-06-13T22:44:37.943Z,96796.00
2018-06-13T22:47:19.558Z,96795.00
2018-06-13T22:50:01.013Z,96799.00
2018-06-13T22:52:42.080Z,96802.00
2018-06-13T22:55:23.392Z,96792.00
2018-06-13T22:58:05.847Z,96794.00
2018-06-13T23:01:12.320Z,96791.00
2018-06-13T23:03:55.120Z,96781.00
2018-06-13T23:06:36.479Z,96775.00
2018-06-13T23:09:17.920Z,96773.00
2018-06-13T23:12:00.176Z,96768.00
2018-06-13T23:14:41.480Z,96763.00
2018-06-13T23:17:22.792Z,96763.00
2018-06-13T23:20:04.758Z,96759.00
2018-06-13T23:22:46.288Z,96769.00
2018-06-13T23:25:27.717Z,96773.00
2018-06-13T23:28:08.896Z,96774.00
2018-06-13T23:30:50.279Z,96773.00
2018-06-13T23:33:31.944Z,96782.00
2018-06-13T23:36:13.127Z,96777.00
2018-06-13T23:38:54.954Z,96781.00
2018-06-13T23:41:36.232Z,96784.00
2018-06-13T23:44:17.671Z,96781.00
2018-06-13T23:46:59.336Z,96778.00
2018-06-13T23:49:40.805Z,96785.00
2018-06-13T23:52:22.157Z,96780.00
2018-06-13T23:55:03.747Z,96775.00
2018-06-13T23:57:45.202Z,96775.00
